Terminal Aerodrome Forecast
Issued by NWS Newport/Morehead City, NC

Home | Current Version | Previous Version | Text Only | Print | Product List | Glossary Off
Versions: 1 2 3 4 5 6 7 8 9 10 11 12 13 14 15 16 17 18 19

000
FTUS42 KMHX 211100 RRA
TAFEWN
TAF
KEWN 211142Z 2112/2212 08005KT P6SM VCSH SCT020 BKN100
     FM211600 09006KT P6SM VCTS SCT030CB BKN100
     FM220000 10003KT P6SM SCT025 BKN080
     FM220600 VRB02KT 3SM BR SCT007 BKN150=

USA.gov is the U.S. government's official web portal to all federal, state and local government web resources and services.